Milford, Connecticut
Current Conditions -  °F | °C
As of 3:52 AM on Friday 19 Dec 2014 (Local Time) from KBDR Reporting Station
Overcast Overcast  
Wind Chill: 33°   Ceiling: 5000
Heat Index: 37°   Visibility: 10mi
Dew Point: 27°   Wind: 5mph
Humidity: 67%   Direction: 270°W
Pressure: 29.94"   Gusts: NA
Location:  41.23°N, 73.06°W
Report Text: KBDR 190852Z AUTO 27004KT 10SM SCT040 OVC050 03/M03 A2994 RMK AO2 SLP139 T00281028 58001
Loading
Personal Weather Stations






























Interactive Weather Map New forecast layout! Learn more

10-Day Weather Forecast

Advertisements
Track Severe Weather on mobile